sensor_id;sensor_type;location;lat;lon;timestamp;pressure;altitude;pressure_sealevel;temperature;humidity
32251;BME280;41295;48.518;9.206;2023-02-25T00:01:27;96037.66;;;7.10;69.25
32251;BME280;41295;48.518;9.206;2023-02-25T00:03:32;96045.56;;;7.07;68.91
32251;BME280;41295;48.518;9.206;2023-02-25T00:05:37;96050.88;;;7.04;69.16
32251;BME280;41295;48.518;9.206;2023-02-25T00:07:40;96051.63;;;7.06;69.25
32251;BME280;41295;48.518;9.206;2023-02-25T00:09:42;96057.25;;;6.96;69.38
32251;BME280;41295;48.518;9.206;2023-02-25T00:11:45;96052.63;;;7.03;68.51
32251;BME280;41295;48.518;9.206;2023-02-25T00:13:49;96054.38;;;7.03;68.54
32251;BME280;41295;48.518;9.206;2023-02-25T00:15:52;96057.31;;;6.95;69.11
32251;BME280;41295;48.518;9.206;2023-02-25T00:17:55;96056.38;;;6.96;68.87
32251;BME280;41295;48.518;9.206;2023-02-25T00:19:57;96065.13;;;6.93;69.00
32251;BME280;41295;48.518;9.206;2023-02-25T00:22:01;96059.06;;;6.94;69.00
32251;BME280;41295;48.518;9.206;2023-02-25T00:24:03;96052.16;;;6.93;68.83
32251;BME280;41295;48.518;9.206;2023-02-25T00:26:17;96055.94;;;6.86;68.98
32251;BME280;41295;48.518;9.206;2023-02-25T00:28:20;96056.84;;;6.85;68.72
32251;BME280;41295;48.518;9.206;2023-02-25T00:30:24;96063.72;;;6.86;68.92
32251;BME280;41295;48.518;9.206;2023-02-25T00:32:27;96069.00;;;6.83;68.77
32251;BME280;41295;48.518;9.206;2023-02-25T00:34:30;96077.78;;;6.80;68.54
32251;BME280;41295;48.518;9.206;2023-02-25T00:36:32;96076.00;;;6.81;68.74
32251;BME280;41295;48.518;9.206;2023-02-25T00:38:35;96077.00;;;6.78;68.93
32251;BME280;41295;48.518;9.206;2023-02-25T00:40:39;96083.91;;;6.78;68.87
32251;BME280;41295;48.518;9.206;2023-02-25T00:42:42;96086.50;;;6.78;68.90
32251;BME280;41295;48.518;9.206;2023-02-25T00:44:45;96079.66;;;6.77;68.93
32251;BME280;41295;48.518;9.206;2023-02-25T00:46:50;96079.66;;;6.77;69.11
32251;BME280;41295;48.518;9.206;2023-02-25T00:48:53;96072.66;;;6.79;69.01
32251;BME280;41295;48.518;9.206;2023-02-25T00:50:55;96057.94;;;6.79;69.17
32251;BME280;41295;48.518;9.206;2023-02-25T00:52:58;96044.09;;;6.80;69.14
32251;BME280;41295;48.518;9.206;2023-02-25T00:55:01;96054.38;;;6.82;68.97
32251;BME280;41295;48.518;9.206;2023-02-25T00:57:04;96072.53;;;6.82;69.11
32251;BME280;41295;48.518;9.206;2023-02-25T00:59:06;96080.63;;;6.95;68.21
32251;BME280;41295;48.518;9.206;2023-02-25T01:01:16;96086.50;;;6.78;68.41
32251;BME280;41295;48.518;9.206;2023-02-25T01:03:21;96082.31;;;6.75;68.16
32251;BME280;41295;48.518;9.206;2023-02-25T01:05:24;96080.66;;;6.93;67.40
32251;BME280;41295;48.518;9.206;2023-02-25T01:07:26;96088.22;;;6.79;67.52
32251;BME280;41295;48.518;9.206;2023-02-25T01:09:29;96075.63;;;6.69;68.39
32251;BME280;41295;48.518;9.206;2023-02-25T01:11:34;96081.66;;;6.70;69.33
32251;BME280;41295;48.518;9.206;2023-02-25T01:13:37;96069.22;;;6.78;69.40
32251;BME280;41295;48.518;9.206;2023-02-25T01:15:40;96077.28;;;6.70;69.61
32251;BME280;41295;48.518;9.206;2023-02-25T01:17:42;96073.91;;;6.68;69.67
32251;BME280;41295;48.518;9.206;2023-02-25T01:19:47;96086.34;;;6.60;69.95
32251;BME280;41295;48.518;9.206;2023-02-25T01:21:52;96079.59;;;6.56;70.20
32251;BME280;41295;48.518;9.206;2023-02-25T01:23:56;96076.19;;;6.55;70.49
32251;BME280;41295;48.518;9.206;2023-02-25T01:26:02;96088.34;;;6.53;70.55
32251;BME280;41295;48.518;9.206;2023-02-25T01:28:04;96086.78;;;6.49;70.51
32251;BME280;41295;48.518;9.206;2023-02-25T01:30:08;96096.06;;;6.55;70.35
32251;BME280;41295;48.518;9.206;2023-02-25T01:32:13;96108.44;;;6.48;70.76
32251;BME280;41295;48.518;9.206;2023-02-25T01:34:16;96111.88;;;6.48;70.75
32251;BME280;41295;48.518;9.206;2023-02-25T01:36:20;96102.59;;;6.43;70.93
32251;BME280;41295;48.518;9.206;2023-02-25T01:38:23;96091.31;;;6.44;71.06
32251;BME280;41295;48.518;9.206;2023-02-25T01:40:26;96093.84;;;6.45;71.11
32251;BME280;41295;48.518;9.206;2023-02-25T01:42:28;96097.88;;;6.53;70.35
32251;BME280;41295;48.518;9.206;2023-02-25T01:44:33;96093.84;;;6.45;70.21
32251;BME280;41295;48.518;9.206;2023-02-25T01:46:36;96091.16;;;6.48;70.51
32251;BME280;41295;48.518;9.206;2023-02-25T01:48:39;96083.31;;;6.50;70.58
32251;BME280;41295;48.518;9.206;2023-02-25T01:50:46;96098.28;;;6.64;69.94
32251;BME280;41295;48.518;9.206;2023-02-25T01:52:52;96100.22;;;6.59;69.78
32251;BME280;41295;48.518;9.206;2023-02-25T01:54:58;96095.13;;;6.57;70.05
32251;BME280;41295;48.518;9.206;2023-02-25T01:57:02;96098.78;;;6.52;70.56
32251;BME280;41295;48.518;9.206;2023-02-25T01:59:07;96101.84;;;6.61;70.46
32251;BME280;41295;48.518;9.206;2023-02-25T02:01:13;96105.84;;;6.48;70.81
32251;BME280;41295;48.518;9.206;2023-02-25T02:03:16;96100.81;;;6.43;71.51
32251;BME280;41295;48.518;9.206;2023-02-25T02:05:20;96105.28;;;6.62;70.08
32251;BME280;41295;48.518;9.206;2023-02-25T02:07:25;96101.66;;;6.66;69.92
32251;BME280;41295;48.518;9.206;2023-02-25T02:09:30;96110.53;;;6.60;70.46
32251;BME280;41295;48.518;9.206;2023-02-25T02:11:32;96110.59;;;6.59;70.66
32251;BME280;41295;48.518;9.206;2023-02-25T02:13:38;96108.59;;;6.43;71.00
32251;BME280;41295;48.518;9.206;2023-02-25T02:15:47;96108.84;;;6.37;71.31
32251;BME280;41295;48.518;9.206;2023-02-25T02:17:56;96112.03;;;6.44;71.01
32251;BME280;41295;48.518;9.206;2023-02-25T02:20:10;96113.19;;;6.36;71.06
32251;BME280;41295;48.518;9.206;2023-02-25T02:22:17;96128.13;;;6.30;71.72
32251;BME280;41295;48.518;9.206;2023-02-25T02:27:10;96132.50;;;6.28;71.85
32251;BME280;41295;48.518;9.206;2023-02-25T02:29:39;96122.94;;;6.52;70.07
32251;BME280;41295;48.518;9.206;2023-02-25T02:31:54;96104.81;;;6.30;70.45
32251;BME280;41295;48.518;9.206;2023-02-25T02:34:11;96099.03;;;6.23;70.68
32251;BME280;41295;48.518;9.206;2023-02-25T02:36:22;96085.34;;;6.42;69.86
32251;BME280;41295;48.518;9.206;2023-02-25T02:38:32;96099.88;;;6.23;70.40
32251;BME280;41295;48.518;9.206;2023-02-25T02:40:41;96097.84;;;6.32;69.18
32251;BME280;41295;48.518;9.206;2023-02-25T02:42:52;96090.41;;;6.22;69.94
32251;BME280;41295;48.518;9.206;2023-02-25T02:45:02;96097.47;;;6.19;70.41
32251;BME280;41295;48.518;9.206;2023-02-25T02:47:10;96108.66;;;6.19;70.17
32251;BME280;41295;48.518;9.206;2023-02-25T02:49:19;96107.81;;;6.19;69.98
32251;BME280;41295;48.518;9.206;2023-02-25T02:51:26;96099.69;;;6.28;69.84
32251;BME280;41295;48.518;9.206;2023-02-25T02:53:35;96100.66;;;6.25;69.71
32251;BME280;41295;48.518;9.206;2023-02-25T02:55:40;96101.38;;;6.29;69.81
32251;BME280;41295;48.518;9.206;2023-02-25T02:57:45;96106.63;;;6.28;69.72
32251;BME280;41295;48.518;9.206;2023-02-25T02:59:51;96106.63;;;6.28;70.14
32251;BME280;41295;48.518;9.206;2023-02-25T03:01:58;96111.56;;;6.34;69.54
32251;BME280;41295;48.518;9.206;2023-02-25T03:04:11;96124.56;;;6.32;69.60
32251;BME280;41295;48.518;9.206;2023-02-25T03:06:19;96115.81;;;6.35;69.20
32251;BME280;41295;48.518;9.206;2023-02-25T03:08:27;96122.66;;;6.37;69.50
32251;BME280;41295;48.518;9.206;2023-02-25T03:10:31;96127.03;;;6.35;69.92
32251;BME280;41295;48.518;9.206;2023-02-25T03:12:35;96128.72;;;6.36;70.16
32251;BME280;41295;48.518;9.206;2023-02-25T03:14:39;96119.13;;;6.38;70.13
32251;BME280;41295;48.518;9.206;2023-02-25T03:16:46;96125.22;;;6.37;70.02
32251;BME280;41295;48.518;9.206;2023-02-25T03:18:53;96125.22;;;6.37;70.16
32251;BME280;41295;48.518;9.206;2023-02-25T03:21:02;96125.97;;;6.41;70.27
32251;BME280;41295;48.518;9.206;2023-02-25T03:23:11;96121.59;;;6.42;70.36
32251;BME280;41295;48.518;9.206;2023-02-25T03:25:18;96131.91;;;6.43;70.33
32251;BME280;41295;48.518;9.206;2023-02-25T03:27:24;96124.91;;;6.45;70.60
32251;BME280;41295;48.518;9.206;2023-02-25T03:29:27;96124.91;;;6.45;70.75
32251;BME280;41295;48.518;9.206;2023-02-25T03:31:34;96122.31;;;6.45;70.78
32251;BME280;41295;48.518;9.206;2023-02-25T03:33:40;96118.78;;;6.48;71.08
32251;BME280;41295;48.518;9.206;2023-02-25T03:35:50;96122.22;;;6.48;71.35
32251;BME280;41295;48.518;9.206;2023-02-25T03:37:58;96127.41;;;6.48;71.29
32251;BME280;41295;48.518;9.206;2023-02-25T03:40:07;96131.72;;;6.48;71.24
32251;BME280;41295;48.518;9.206;2023-02-25T03:42:15;96131.06;;;6.43;71.12
32251;BME280;41295;48.518;9.206;2023-02-25T03:44:23;96142.22;;;6.45;70.95
32251;BME280;41295;48.518;9.206;2023-02-25T03:46:27;96135.41;;;6.42;70.84
32251;BME280;41295;48.518;9.206;2023-02-25T03:48:32;96142.72;;;6.31;70.05
32251;BME280;41295;48.518;9.206;2023-02-25T03:50:41;96153.88;;;6.33;70.03
32251;BME280;41295;48.518;9.206;2023-02-25T03:52:45;96142.63;;;6.34;69.89
32251;BME280;41295;48.518;9.206;2023-02-25T03:54:50;96145.44;;;6.28;69.16
32251;BME280;41295;48.518;9.206;2023-02-25T03:56:53;96142.84;;;6.28;68.99
32251;BME280;41295;48.518;9.206;2023-02-25T03:58:55;96142.84;;;6.28;68.97
32251;BME280;41295;48.518;9.206;2023-02-25T04:00:59;96144.63;;;6.27;68.79
32251;BME280;41295;48.518;9.206;2023-02-25T04:03:04;96148.03;;;6.28;68.17
32251;BME280;41295;48.518;9.206;2023-02-25T04:05:07;96148.94;;;6.27;68.26
32251;BME280;41295;48.518;9.206;2023-02-25T04:07:10;96148.16;;;6.24;68.18
32251;BME280;41295;48.518;9.206;2023-02-25T04:09:13;96156.72;;;6.27;68.34
32251;BME280;41295;48.518;9.206;2023-02-25T04:11:17;96150.63;;;6.28;68.23
32251;BME280;41295;48.518;9.206;2023-02-25T04:13:21;96150.88;;;6.21;67.93
32251;BME280;41295;48.518;9.206;2023-02-25T04:15:23;96154.28;;;6.22;67.99
32251;BME280;41295;48.518;9.206;2023-02-25T04:17:28;96156.78;;;6.25;67.85
32251;BME280;41295;48.518;9.206;2023-02-25T04:19:30;96158.47;;;6.26;67.84
32251;BME280;41295;48.518;9.206;2023-02-25T04:21:35;96165.34;;;6.27;68.15
32251;BME280;41295;48.518;9.206;2023-02-25T04:23:38;96162.69;;;6.29;68.05
32251;BME280;41295;48.518;9.206;2023-02-25T04:25:40;96165.28;;;6.29;68.43
32251;BME280;41295;48.518;9.206;2023-02-25T04:27:44;96164.34;;;6.30;68.45
32251;BME280;41295;48.518;9.206;2023-02-25T04:29:47;96166.00;;;6.32;68.58
32251;BME280;41295;48.518;9.206;2023-02-25T04:31:49;96162.50;;;6.33;68.51
32251;BME280;41295;48.518;9.206;2023-02-25T04:33:52;96158.22;;;6.32;68.68
32251;BME280;41295;48.518;9.206;2023-02-25T04:35:57;96159.91;;;6.33;68.46
32251;BME280;41295;48.518;9.206;2023-02-25T04:38:00;96159.13;;;6.31;68.41
32251;BME280;41295;48.518;9.206;2023-02-25T04:40:03;96159.19;;;6.30;68.42
32251;BME280;41295;48.518;9.206;2023-02-25T04:42:12;96161.78;;;6.30;68.11
32251;BME280;41295;48.518;9.206;2023-02-25T04:44:16;96159.31;;;6.27;68.06
32251;BME280;41295;48.518;9.206;2023-02-25T04:46:18;96155.13;;;6.22;68.07
32251;BME280;41295;48.518;9.206;2023-02-25T04:48:21;96160.19;;;6.25;67.91
32251;BME280;41295;48.518;9.206;2023-02-25T04:50:25;96162.91;;;6.22;67.98
32251;BME280;41295;48.518;9.206;2023-02-25T04:52:27;96159.31;;;6.27;68.25
32251;BME280;41295;48.518;9.206;2023-02-25T04:54:30;96161.31;;;6.18;68.14
32251;BME280;41295;48.518;9.206;2023-02-25T04:56:32;96160.78;;;6.10;68.58
32251;BME280;41295;48.518;9.206;2023-02-25T04:58:36;96155.72;;;6.07;68.75
32251;BME280;41295;48.518;9.206;2023-02-25T05:00:40;96161.88;;;6.02;68.80
32251;BME280;41295;48.518;9.206;2023-02-25T05:02:50;96165.50;;;5.98;68.97
32251;BME280;41295;48.518;9.206;2023-02-25T05:04:52;96165.59;;;5.95;68.95
32251;BME280;41295;48.518;9.206;2023-02-25T05:06:55;96169.88;;;5.96;68.46
32251;BME280;41295;48.518;9.206;2023-02-25T05:08:58;96173.25;;;5.98;68.27
32251;BME280;41295;48.518;9.206;2023-02-25T05:11:01;96175.84;;;5.98;68.26
32251;BME280;41295;48.518;9.206;2023-02-25T05:13:04;96180.13;;;5.99;68.17
32251;BME280;41295;48.518;9.206;2023-02-25T05:15:08;96176.97;;;5.91;68.25
32251;BME280;41295;48.518;9.206;2023-02-25T05:17:12;96183.16;;;5.87;67.47
32251;BME280;41295;48.518;9.206;2023-02-25T05:19:17;96177.13;;;5.86;67.02
32251;BME280;41295;48.518;9.206;2023-02-25T05:21:22;96171.34;;;5.80;65.74
32251;BME280;41295;48.518;9.206;2023-02-25T05:23:25;96168.88;;;5.76;64.84
32251;BME280;41295;48.518;9.206;2023-02-25T05:25:28;96168.88;;;5.76;64.49
32251;BME280;41295;48.518;9.206;2023-02-25T05:27:30;96172.38;;;5.74;64.36
32251;BME280;41295;48.518;9.206;2023-02-25T05:29:33;96166.41;;;5.72;64.22
32251;BME280;41295;48.518;9.206;2023-02-25T05:31:36;96173.31;;;5.73;63.80
32251;BME280;41295;48.518;9.206;2023-02-25T05:33:40;96173.25;;;5.74;63.53
32251;BME280;41295;48.518;9.206;2023-02-25T05:35:43;96179.31;;;5.73;63.42
32251;BME280;41295;48.518;9.206;2023-02-25T05:37:46;96178.47;;;5.73;63.39
32251;BME280;41295;48.518;9.206;2023-02-25T05:39:48;96177.41;;;5.78;62.62
32251;BME280;41295;48.518;9.206;2023-02-25T05:41:51;96189.56;;;5.76;62.93
32251;BME280;41295;48.518;9.206;2023-02-25T05:43:54;96199.97;;;5.75;62.67
32251;BME280;41295;48.518;9.206;2023-02-25T05:45:58;96202.75;;;5.69;63.23
32251;BME280;41295;48.518;9.206;2023-02-25T05:48:01;96199.38;;;5.66;63.54
32251;BME280;41295;48.518;9.206;2023-02-25T05:50:07;96201.13;;;5.66;63.59
32251;BME280;41295;48.518;9.206;2023-02-25T05:52:10;96205.63;;;5.61;63.56
32251;BME280;41295;48.518;9.206;2023-02-25T05:54:12;96207.31;;;5.62;63.99
32251;BME280;41295;48.518;9.206;2023-02-25T05:56:18;96198.63;;;5.63;64.61
32251;BME280;41295;48.518;9.206;2023-02-25T05:58:22;96201.97;;;5.66;64.87
32251;BME280;41295;48.518;9.206;2023-02-25T06:00:25;96200.34;;;5.64;65.18
32251;BME280;41295;48.518;9.206;2023-02-25T06:02:27;96211.53;;;5.64;65.05
32251;BME280;41295;48.518;9.206;2023-02-25T06:04:30;96203.72;;;5.66;65.26
32251;BME280;41295;48.518;9.206;2023-02-25T06:06:34;96207.03;;;5.70;64.07
32251;BME280;41295;48.518;9.206;2023-02-25T06:08:36;96203.44;;;5.74;63.47
32251;BME280;41295;48.518;9.206;2023-02-25T06:10:39;96200.34;;;5.64;63.63
32251;BME280;41295;48.518;9.206;2023-02-25T06:12:42;96199.53;;;5.62;63.60
32251;BME280;41295;48.518;9.206;2023-02-25T06:14:46;96203.91;;;5.60;63.76
32251;BME280;41295;48.518;9.206;2023-02-25T06:16:49;96204.03;;;5.57;63.36
32251;BME280;41295;48.518;9.206;2023-02-25T06:18:57;96209.09;;;5.60;63.10
32251;BME280;41295;48.518;9.206;2023-02-25T06:21:02;96196.97;;;5.62;62.90
32251;BME280;41295;48.518;9.206;2023-02-25T06:23:07;96202.81;;;5.67;62.95
32251;BME280;41295;48.518;9.206;2023-02-25T06:25:09;96205.41;;;5.67;62.39
32251;BME280;41295;48.518;9.206;2023-02-25T06:27:15;96214.16;;;5.63;62.42
32251;BME280;41295;48.518;9.206;2023-02-25T06:29:18;96226.34;;;5.59;62.51
32251;BME280;41295;48.518;9.206;2023-02-25T06:31:22;96228.22;;;5.56;62.48
32251;BME280;41295;48.518;9.206;2023-02-25T06:33:25;96221.34;;;5.54;62.28
32251;BME280;41295;48.518;9.206;2023-02-25T06:35:32;96243.75;;;5.56;62.13
32251;BME280;41295;48.518;9.206;2023-02-25T06:37:36;96232.13;;;5.68;60.75
32251;BME280;41295;48.518;9.206;2023-02-25T06:39:40;96235.81;;;5.60;60.65
32251;BME280;41295;48.518;9.206;2023-02-25T06:41:43;96236.81;;;5.56;60.90
32251;BME280;41295;48.518;9.206;2023-02-25T06:43:47;96240.19;;;5.58;61.60
32251;BME280;41295;48.518;9.206;2023-02-25T06:45:52;96249.72;;;5.56;62.43
32251;BME280;41295;48.518;9.206;2023-02-25T06:47:55;96253.22;;;5.55;63.10
32251;BME280;41295;48.518;9.206;2023-02-25T06:49:59;96247.78;;;5.63;62.88
32251;BME280;41295;48.518;9.206;2023-02-25T06:52:03;96245.91;;;5.68;62.23
32251;BME280;41295;48.518;9.206;2023-02-25T06:54:05;96239.09;;;5.65;61.70
32251;BME280;41295;48.518;9.206;2023-02-25T06:56:11;96248.78;;;5.59;62.26
32251;BME280;41295;48.518;9.206;2023-02-25T06:58:14;96247.19;;;5.54;62.22
32251;BME280;41295;48.518;9.206;2023-02-25T07:00:18;96243.00;;;5.52;62.44
32251;BME280;41295;48.518;9.206;2023-02-25T07:02:21;96249.84;;;5.53;62.82
32251;BME280;41295;48.518;9.206;2023-02-25T07:04:23;96251.84;;;5.70;61.59
32251;BME280;41295;48.518;9.206;2023-02-25T07:06:26;96246.47;;;6.00;60.36
32251;BME280;41295;48.518;9.206;2023-02-25T07:08:29;96242.72;;;5.85;61.29
32251;BME280;41295;48.518;9.206;2023-02-25T07:10:33;96235.81;;;5.86;60.33
32251;BME280;41295;48.518;9.206;2023-02-25T07:12:37;96232.09;;;5.93;60.58
32251;BME280;41295;48.518;9.206;2023-02-25T07:14:39;96232.81;;;5.97;60.97
32251;BME280;41295;48.518;9.206;2023-02-25T07:16:42;96230.63;;;5.86;61.44
32251;BME280;41295;48.518;9.206;2023-02-25T07:18:45;96242.53;;;5.66;61.39
32251;BME280;41295;48.518;9.206;2023-02-25T07:20:48;96240.63;;;5.71;61.46
32251;BME280;41295;48.518;9.206;2023-02-25T07:22:50;96247.53;;;5.71;61.31
32251;BME280;41295;48.518;9.206;2023-02-25T07:24:53;96250.53;;;5.58;61.74
32251;BME280;41295;48.518;9.206;2023-02-25T07:26:56;96255.75;;;5.57;61.91
32251;BME280;41295;48.518;9.206;2023-02-25T07:29:00;96251.75;;;5.73;61.93
32251;BME280;41295;48.518;9.206;2023-02-25T07:31:08;96251.91;;;5.69;62.17
32251;BME280;41295;48.518;9.206;2023-02-25T07:33:12;96257.53;;;5.54;62.55
32251;BME280;41295;48.518;9.206;2023-02-25T07:35:15;96255.53;;;5.63;62.60
32251;BME280;41295;48.518;9.206;2023-02-25T07:37:18;96257.78;;;5.48;63.12
32251;BME280;41295;48.518;9.206;2023-02-25T07:39:20;96254.50;;;5.43;63.03
32251;BME280;41295;48.518;9.206;2023-02-25T07:41:23;96262.56;;;5.34;63.54
32251;BME280;41295;48.518;9.206;2023-02-25T07:43:26;96263.53;;;5.29;63.75
32251;BME280;41295;48.518;9.206;2023-02-25T07:45:30;96260.91;;;5.31;63.72
32251;BME280;41295;48.518;9.206;2023-02-25T07:47:32;96265.25;;;5.29;63.84
32251;BME280;41295;48.518;9.206;2023-02-25T07:49:35;96266.97;;;5.30;63.99
32251;BME280;41295;48.518;9.206;2023-02-25T07:51:37;96263.69;;;5.52;62.06
32251;BME280;41295;48.518;9.206;2023-02-25T07:53:40;96267.38;;;5.45;62.38
32251;BME280;41295;48.518;9.206;2023-02-25T07:55:43;96267.88;;;5.54;62.21
32251;BME280;41295;48.518;9.206;2023-02-25T07:57:46;96265.06;;;5.62;61.02
32251;BME280;41295;48.518;9.206;2023-02-25T07:59:48;96250.78;;;5.50;61.40
32251;BME280;41295;48.518;9.206;2023-02-25T08:01:52;96250.31;;;5.39;61.68
32251;BME280;41295;48.518;9.206;2023-02-25T08:03:56;96247.84;;;5.36;61.99
32251;BME280;41295;48.518;9.206;2023-02-25T08:05:59;96245.53;;;5.53;61.50
32251;BME280;41295;48.518;9.206;2023-02-25T08:08:03;96242.09;;;5.53;60.68
32251;BME280;41295;48.518;9.206;2023-02-25T08:10:07;96239.50;;;5.53;60.84
32251;BME280;41295;48.518;9.206;2023-02-25T08:12:10;96240.28;;;5.55;61.16
32251;BME280;41295;48.518;9.206;2023-02-25T08:14:12;96250.16;;;5.44;62.22
32251;BME280;41295;48.518;9.206;2023-02-25T08:16:17;96252.03;;;5.38;62.77
32251;BME280;41295;48.518;9.206;2023-02-25T08:18:21;96245.72;;;5.47;62.09
32251;BME280;41295;48.518;9.206;2023-02-25T08:20:24;96248.47;;;5.43;62.42
32251;BME280;41295;48.518;9.206;2023-02-25T08:22:27;96243.41;;;5.39;62.89
32251;BME280;41295;48.518;9.206;2023-02-25T08:24:29;96239.97;;;5.39;63.05
32251;BME280;41295;48.518;9.206;2023-02-25T08:26:33;96243.03;;;5.50;62.54
32251;BME280;41295;48.518;9.206;2023-02-25T08:28:36;96243.81;;;5.52;60.41
32251;BME280;41295;48.518;9.206;2023-02-25T08:30:40;96243.31;;;5.68;58.18
32251;BME280;41295;48.518;9.206;2023-02-25T08:32:42;96239.16;;;5.88;58.11
32251;BME280;41295;48.518;9.206;2023-02-25T08:34:49;96246.78;;;5.93;57.88
32251;BME280;41295;48.518;9.206;2023-02-25T08:36:52;96248.50;;;5.66;58.29
32251;BME280;41295;48.518;9.206;2023-02-25T08:38:55;96247.94;;;5.58;58.89
32251;BME280;41295;48.518;9.206;2023-02-25T08:40:58;96255.88;;;5.53;59.44
32251;BME280;41295;48.518;9.206;2023-02-25T08:43:01;96249.00;;;5.52;59.52
32251;BME280;41295;48.518;9.206;2023-02-25T08:45:04;96263.63;;;5.53;59.05
32251;BME280;41295;48.518;9.206;2023-02-25T08:47:07;96256.34;;;5.65;57.35
32251;BME280;41295;48.518;9.206;2023-02-25T08:49:09;96251.03;;;5.70;57.12
32251;BME280;41295;48.518;9.206;2023-02-25T08:51:13;96258.84;;;5.68;57.54
32251;BME280;41295;48.518;9.206;2023-02-25T08:53:16;96256.38;;;5.63;57.75
32251;BME280;41295;48.518;9.206;2023-02-25T08:55:19;96266.00;;;5.60;56.88
32251;BME280;41295;48.518;9.206;2023-02-25T08:57:25;96267.69;;;5.61;56.56
32251;BME280;41295;48.518;9.206;2023-02-25T08:59:27;96265.00;;;5.64;56.69
32251;BME280;41295;48.518;9.206;2023-02-25T09:01:36;96263.22;;;5.66;56.82
32251;BME280;41295;48.518;9.206;2023-02-25T09:03:49;96265.44;;;5.77;55.89
32251;BME280;41295;48.518;9.206;2023-02-25T09:05:58;96266.25;;;5.77;56.48
32251;BME280;41295;48.518;9.206;2023-02-25T09:08:03;96269.00;;;5.73;56.40
32251;BME280;41295;48.518;9.206;2023-02-25T09:10:06;96262.41;;;5.89;55.38
32251;BME280;41295;48.518;9.206;2023-02-25T09:12:10;96259.53;;;5.73;55.70
32251;BME280;41295;48.518;9.206;2023-02-25T09:14:13;96260.19;;;5.78;56.14
32251;BME280;41295;48.518;9.206;2023-02-25T09:16:16;96263.66;;;5.77;56.38
32251;BME280;41295;48.518;9.206;2023-02-25T09:18:20;96257.75;;;5.74;56.22
32251;BME280;41295;48.518;9.206;2023-02-25T09:20:23;96268.91;;;5.76;56.19
32251;BME280;41295;48.518;9.206;2023-02-25T09:22:26;96262.84;;;5.77;56.46
32251;BME280;41295;48.518;9.206;2023-02-25T09:24:30;96261.13;;;5.76;56.08
32251;BME280;41295;48.518;9.206;2023-02-25T09:26:34;96259.47;;;5.99;54.76
32251;BME280;41295;48.518;9.206;2023-02-25T09:28:37;96265.22;;;6.09;54.94
32251;BME280;41295;48.518;9.206;2023-02-25T09:30:39;96274.22;;;5.97;55.57
32251;BME280;41295;48.518;9.206;2023-02-25T09:32:42;96269.59;;;5.81;55.43
32251;BME280;41295;48.518;9.206;2023-02-25T09:34:46;96265.47;;;5.75;56.08
32251;BME280;41295;48.518;9.206;2023-02-25T09:36:49;96256.06;;;5.73;56.06
32251;BME280;41295;48.518;9.206;2023-02-25T09:38:52;96255.09;;;5.75;56.66
32251;BME280;41295;48.518;9.206;2023-02-25T09:40:56;96262.06;;;5.75;57.05
32251;BME280;41295;48.518;9.206;2023-02-25T09:43:05;96255.22;;;5.72;57.33
32251;BME280;41295;48.518;9.206;2023-02-25T09:45:14;96258.41;;;5.81;57.08
32251;BME280;41295;48.518;9.206;2023-02-25T09:47:20;96254.84;;;5.83;57.18
32251;BME280;41295;48.518;9.206;2023-02-25T09:49:29;96253.25;;;5.79;57.22
32251;BME280;41295;48.518;9.206;2023-02-25T09:51:35;96262.78;;;5.78;57.58
32251;BME280;41295;48.518;9.206;2023-02-25T09:53:41;96259.34;;;5.78;57.38
32251;BME280;41295;48.518;9.206;2023-02-25T09:55:50;96254.81;;;5.85;56.79
32251;BME280;41295;48.518;9.206;2023-02-25T09:58:00;96250.31;;;5.90;57.09
32251;BME280;41295;48.518;9.206;2023-02-25T10:00:18;96247.28;;;6.02;56.41
32251;BME280;41295;48.518;9.206;2023-02-25T10:02:28;96254.16;;;6.04;55.58
32251;BME280;41295;48.518;9.206;2023-02-25T10:04:36;96248.66;;;6.13;54.17
32251;BME280;41295;48.518;9.206;2023-02-25T10:06:42;96250.56;;;6.08;54.66
32251;BME280;41295;48.518;9.206;2023-02-25T10:08:50;96239.91;;;6.17;53.46
32251;BME280;41295;48.518;9.206;2023-02-25T10:11:02;96241.94;;;6.09;54.23
32251;BME280;41295;48.518;9.206;2023-02-25T10:13:19;96240.50;;;6.24;53.36
32251;BME280;41295;48.518;9.206;2023-02-25T10:15:30;96243.00;;;6.27;52.31
32251;BME280;41295;48.518;9.206;2023-02-25T10:17:42;96240.44;;;6.25;53.06
32251;BME280;41295;48.518;9.206;2023-02-25T10:20:02;96239.31;;;6.33;53.55
32251;BME280;41295;48.518;9.206;2023-02-25T10:22:21;96235.00;;;6.33;52.37
32251;BME280;41295;48.518;9.206;2023-02-25T10:24:31;96241.84;;;6.34;51.85
32251;BME280;41295;48.518;9.206;2023-02-25T10:26:38;96232.91;;;6.19;53.22
32251;BME280;41295;48.518;9.206;2023-02-25T10:28:47;96228.50;;;6.45;52.04
32251;BME280;41295;48.518;9.206;2023-02-25T10:30:55;96227.78;;;6.42;52.29
32251;BME280;41295;48.518;9.206;2023-02-25T10:33:03;96227.22;;;6.33;52.57
32251;BME280;41295;48.518;9.206;2023-02-25T10:35:14;96230.66;;;6.34;52.34
32251;BME280;41295;48.518;9.206;2023-02-25T10:37:20;96231.47;;;6.36;52.90
32251;BME280;41295;48.518;9.206;2023-02-25T10:39:25;96226.56;;;6.50;52.46
32251;BME280;41295;48.518;9.206;2023-02-25T10:41:28;96222.31;;;6.49;52.09
32251;BME280;41295;48.518;9.206;2023-02-25T10:43:33;96224.19;;;6.46;51.40
32251;BME280;41295;48.518;9.206;2023-02-25T10:45:38;96226.34;;;6.57;48.24
32251;BME280;41295;48.518;9.206;2023-02-25T10:47:45;96224.38;;;6.41;48.79
32251;BME280;41295;48.518;9.206;2023-02-25T10:50:11;96221.19;;;6.33;48.70
32251;BME280;41295;48.518;9.206;2023-02-25T10:52:16;96228.81;;;6.37;48.23
32251;BME280;41295;48.518;9.206;2023-02-25T10:54:22;96223.06;;;6.29;48.49
32251;BME280;41295;48.518;9.206;2023-02-25T10:56:26;96213.78;;;6.23;48.93
32251;BME280;41295;48.518;9.206;2023-02-25T10:58:34;96225.53;;;6.08;47.05
32251;BME280;41295;48.518;9.206;2023-02-25T11:00:38;96209.97;;;6.10;46.01
32251;BME280;41295;48.518;9.206;2023-02-25T11:02:49;96212.53;;;6.10;46.49
32251;BME280;41295;48.518;9.206;2023-02-25T11:04:52;96209.22;;;6.06;47.06
32251;BME280;41295;48.518;9.206;2023-02-25T11:06:56;96211.03;;;6.02;47.38
32251;BME280;41295;48.518;9.206;2023-02-25T11:09:00;96210.22;;;6.02;47.54
32251;BME280;41295;48.518;9.206;2023-02-25T11:11:05;96204.06;;;6.05;47.71
32251;BME280;41295;48.518;9.206;2023-02-25T11:13:27;96209.84;;;6.13;46.31